aviador You're here:

KSBP Decoded Metar

SAN LUIS OBISPO in CA, USA
Report Time2017-04-29 16:56:00
UTC Time2017-04-29 17:44:49
Flight Rules vfr VFR
Wind210° at 03 kt
W.Decomp.*RWY 25: 1.7 kt HW 2.5 kt LCW
RWY 11: 0.3 kt HW 3.0 kt RCW
W.Rank210° ranks 21
Current wind is below 210° avg. (5.6)
Visibility9999 m
Phenomena:N/A
Clouds:N/A
Expected CloudBase > 7,600 ft AGL from Temp-Dew spread
CeilingNone
Temp21°C (ISA +6)
Dew Point02°C (29% RH)
AAT18.3°C
QNH1018 hPa
Density Alt873 ft
Elevation194 ft
Report Wrong Elevation
Raw Report
KSBP 291656Z 21003KT 10SM CLR 21/02 A3007=

Extra information for KSBP:More info

Metar Taf Metar & Taf Last 4 Metars F.Rules Stats Wind Profile Meteogram Temp Stats Airport Information Weather charts Add Link Nearby VenuesMetar ALERT Operation Metar Decoded Social comments

AIRNAV info for KSBP